sensor_id;sensor_type;location;lat;lon;timestamp;pressure;altitude;pressure_sealevel;temperature;humidity
16613;BME280;8419;52.358;9.752;2022-11-20T00:02:43;100632.00;;;8.24;37.08
16613;BME280;8419;52.358;9.752;2022-11-20T00:05:31;100628.00;;;8.18;37.19
16613;BME280;8419;52.358;9.752;2022-11-20T00:08:17;100622.00;;;8.13;37.30
16613;BME280;8419;52.358;9.752;2022-11-20T00:11:07;100622.00;;;8.16;37.27
16613;BME280;8419;52.358;9.752;2022-11-20T00:13:55;100624.00;;;8.13;37.35
16613;BME280;8419;52.358;9.752;2022-11-20T00:16:41;100618.00;;;8.11;37.36
16613;BME280;8419;52.358;9.752;2022-11-20T00:19:28;100621.00;;;8.12;37.32
16613;BME280;8419;52.358;9.752;2022-11-20T00:22:14;100616.00;;;8.14;37.29
16613;BME280;8419;52.358;9.752;2022-11-20T00:24:59;100609.00;;;8.07;37.34
16613;BME280;8419;52.358;9.752;2022-11-20T00:27:45;100610.00;;;8.00;37.45
16613;BME280;8419;52.358;9.752;2022-11-20T00:30:31;100613.00;;;8.03;37.39
16613;BME280;8419;52.358;9.752;2022-11-20T00:33:16;100616.00;;;8.03;37.32
16613;BME280;8419;52.358;9.752;2022-11-20T00:36:03;100617.00;;;7.99;37.41
16613;BME280;8419;52.358;9.752;2022-11-20T00:38:52;100622.00;;;8.05;37.26
16613;BME280;8419;52.358;9.752;2022-11-20T00:41:38;100612.00;;;7.98;37.34
16613;BME280;8419;52.358;9.752;2022-11-20T00:44:24;100611.00;;;8.02;37.26
16613;BME280;8419;52.358;9.752;2022-11-20T00:47:11;100604.00;;;7.93;37.42
16613;BME280;8419;52.358;9.752;2022-11-20T00:49:56;100603.00;;;7.96;37.37
16613;BME280;8419;52.358;9.752;2022-11-20T00:52:42;100609.00;;;7.94;37.40
16613;BME280;8419;52.358;9.752;2022-11-20T00:55:27;100611.00;;;7.90;37.46
16613;BME280;8419;52.358;9.752;2022-11-20T00:58:13;100604.00;;;7.74;37.68
16613;BME280;8419;52.358;9.752;2022-11-20T01:01:04;100604.00;;;7.70;37.76
16613;BME280;8419;52.358;9.752;2022-11-20T01:03:51;100601.00;;;7.76;37.66
16613;BME280;8419;52.358;9.752;2022-11-20T01:06:39;100607.00;;;7.79;37.55
16613;BME280;8419;52.358;9.752;2022-11-20T01:09:25;100602.00;;;7.63;37.82
16613;BME280;8419;52.358;9.752;2022-11-20T01:12:11;100603.00;;;7.60;37.86
16613;BME280;8419;52.358;9.752;2022-11-20T01:14:56;100605.00;;;7.61;37.86
16613;BME280;8419;52.358;9.752;2022-11-20T01:17:41;100605.00;;;7.66;37.84
16613;BME280;8419;52.358;9.752;2022-11-20T01:20:27;100599.00;;;7.68;37.88
16613;BME280;8419;52.358;9.752;2022-11-20T01:23:13;100600.00;;;7.75;37.78
16613;BME280;8419;52.358;9.752;2022-11-20T01:26:01;100602.00;;;7.79;37.64
16613;BME280;8419;52.358;9.752;2022-11-20T01:28:48;100597.00;;;7.83;37.60
16613;BME280;8419;52.358;9.752;2022-11-20T01:31:36;100595.00;;;7.78;37.59
16613;BME280;8419;52.358;9.752;2022-11-20T01:34:22;100594.00;;;7.76;37.68
16613;BME280;8419;52.358;9.752;2022-11-20T01:37:08;100591.00;;;7.77;37.66
16613;BME280;8419;52.358;9.752;2022-11-20T01:39:54;100586.00;;;7.81;37.63
16613;BME280;8419;52.358;9.752;2022-11-20T01:42:46;100581.00;;;7.84;37.56
16613;BME280;8419;52.358;9.752;2022-11-20T01:45:59;100585.00;;;7.84;37.60
16613;BME280;8419;52.358;9.752;2022-11-20T01:48:49;100579.00;;;7.83;37.66
16613;BME280;8419;52.358;9.752;2022-11-20T01:51:40;100575.00;;;7.87;37.62
16613;BME280;8419;52.358;9.752;2022-11-20T01:54:32;100566.00;;;7.81;37.78
16613;BME280;8419;52.358;9.752;2022-11-20T01:57:22;100568.00;;;7.92;37.68
16613;BME280;8419;52.358;9.752;2022-11-20T02:00:13;100566.00;;;7.91;37.74
16613;BME280;8419;52.358;9.752;2022-11-20T02:03:01;100562.00;;;7.90;37.90
16613;BME280;8419;52.358;9.752;2022-11-20T02:05:53;100562.00;;;8.01;37.74
16613;BME280;8419;52.358;9.752;2022-11-20T02:08:41;100558.00;;;8.09;37.67
16613;BME280;8419;52.358;9.752;2022-11-20T02:11:27;100557.00;;;8.16;37.69
16613;BME280;8419;52.358;9.752;2022-11-20T02:14:15;100560.00;;;8.29;37.55
16613;BME280;8419;52.358;9.752;2022-11-20T02:17:00;100554.00;;;8.37;37.52
16613;BME280;8419;52.358;9.752;2022-11-20T02:19:46;100567.00;;;8.43;37.52
16613;BME280;8419;52.358;9.752;2022-11-20T02:22:38;100566.00;;;8.47;37.50
16613;BME280;8419;52.358;9.752;2022-11-20T02:25:26;100556.00;;;8.50;37.50
16613;BME280;8419;52.358;9.752;2022-11-20T02:28:12;100562.00;;;8.54;37.48
16613;BME280;8419;52.358;9.752;2022-11-20T02:31:00;100555.00;;;8.68;37.29
16613;BME280;8419;52.358;9.752;2022-11-20T02:33:46;100549.00;;;8.65;37.40
16613;BME280;8419;52.358;9.752;2022-11-20T02:36:33;100551.00;;;8.71;37.32
16613;BME280;8419;52.358;9.752;2022-11-20T02:39:21;100553.00;;;8.73;37.30
16613;BME280;8419;52.358;9.752;2022-11-20T02:42:08;100546.00;;;8.79;37.26
16613;BME280;8419;52.358;9.752;2022-11-20T02:44:54;100544.00;;;8.82;37.23
16613;BME280;8419;52.358;9.752;2022-11-20T02:47:40;100534.00;;;8.83;37.22
16613;BME280;8419;52.358;9.752;2022-11-20T02:50:25;100538.00;;;8.77;37.27
16613;BME280;8419;52.358;9.752;2022-11-20T02:53:11;100532.00;;;8.78;37.33
16613;BME280;8419;52.358;9.752;2022-11-20T02:55:57;100535.00;;;8.80;37.31
16613;BME280;8419;52.358;9.752;2022-11-20T02:58:42;100531.00;;;8.82;37.26
16613;BME280;8419;52.358;9.752;2022-11-20T03:01:28;100527.00;;;8.83;37.27
16613;BME280;8419;52.358;9.752;2022-11-20T03:04:14;100535.00;;;8.81;37.25
16613;BME280;8419;52.358;9.752;2022-11-20T03:07:00;100535.00;;;8.81;37.23
16613;BME280;8419;52.358;9.752;2022-11-20T03:09:45;100535.00;;;8.80;37.22
16613;BME280;8419;52.358;9.752;2022-11-20T03:12:31;100528.00;;;8.76;37.24
16613;BME280;8419;52.358;9.752;2022-11-20T03:15:17;100529.00;;;8.69;37.40
16613;BME280;8419;52.358;9.752;2022-11-20T03:18:03;100522.00;;;8.69;37.44
16613;BME280;8419;52.358;9.752;2022-11-20T03:20:48;100524.00;;;8.70;37.41
16613;BME280;8419;52.358;9.752;2022-11-20T03:23:35;100526.00;;;8.70;37.42
16613;BME280;8419;52.358;9.752;2022-11-20T03:26:23;100520.00;;;8.71;37.42
16613;BME280;8419;52.358;9.752;2022-11-20T03:29:09;100515.00;;;8.70;37.45
16613;BME280;8419;52.358;9.752;2022-11-20T03:31:55;100519.00;;;8.69;37.50
16613;BME280;8419;52.358;9.752;2022-11-20T03:34:40;100515.00;;;8.70;37.48
16613;BME280;8419;52.358;9.752;2022-11-20T03:37:26;100518.00;;;8.67;37.56
16613;BME280;8419;52.358;9.752;2022-11-20T03:40:12;100527.00;;;8.67;37.64
16613;BME280;8419;52.358;9.752;2022-11-20T03:42:58;100502.00;;;8.74;37.53
16613;BME280;8419;52.358;9.752;2022-11-20T03:45:44;100509.00;;;8.77;37.46
16613;BME280;8419;52.358;9.752;2022-11-20T03:48:29;100503.00;;;8.72;37.52
16613;BME280;8419;52.358;9.752;2022-11-20T03:51:17;100506.00;;;8.65;37.60
16613;BME280;8419;52.358;9.752;2022-11-20T03:54:05;100493.00;;;8.58;37.71
16613;BME280;8419;52.358;9.752;2022-11-20T03:56:51;100505.00;;;8.60;37.69
16613;BME280;8419;52.358;9.752;2022-11-20T03:59:38;100501.00;;;8.58;37.65
16613;BME280;8419;52.358;9.752;2022-11-20T04:02:23;100508.00;;;8.59;37.69
16613;BME280;8419;52.358;9.752;2022-11-20T04:05:09;100496.00;;;8.63;37.65
16613;BME280;8419;52.358;9.752;2022-11-20T04:07:55;100490.00;;;8.73;37.50
16613;BME280;8419;52.358;9.752;2022-11-20T04:10:40;100486.00;;;8.74;37.48
16613;BME280;8419;52.358;9.752;2022-11-20T04:13:26;100489.00;;;8.76;37.50
16613;BME280;8419;52.358;9.752;2022-11-20T04:16:12;100485.00;;;8.80;37.46
16613;BME280;8419;52.358;9.752;2022-11-20T04:19:00;100491.00;;;8.80;37.45
16613;BME280;8419;52.358;9.752;2022-11-20T04:21:49;100478.00;;;8.85;37.39
16613;BME280;8419;52.358;9.752;2022-11-20T04:24:34;100480.00;;;8.87;37.37
16613;BME280;8419;52.358;9.752;2022-11-20T04:27:20;100482.00;;;8.88;37.31
16613;BME280;8419;52.358;9.752;2022-11-20T04:30:09;100482.00;;;8.85;37.35
16613;BME280;8419;52.358;9.752;2022-11-20T04:32:55;100478.00;;;8.84;37.36
16613;BME280;8419;52.358;9.752;2022-11-20T04:35:41;100478.00;;;8.85;37.32
16613;BME280;8419;52.358;9.752;2022-11-20T04:38:27;100482.00;;;8.94;37.21
16613;BME280;8419;52.358;9.752;2022-11-20T04:41:19;100482.00;;;8.94;37.15
16613;BME280;8419;52.358;9.752;2022-11-20T04:44:05;100477.00;;;8.94;37.15
16613;BME280;8419;52.358;9.752;2022-11-20T04:46:51;100478.00;;;8.94;37.10
16613;BME280;8419;52.358;9.752;2022-11-20T04:49:37;100479.00;;;8.97;37.06
16613;BME280;8419;52.358;9.752;2022-11-20T04:52:23;100474.00;;;8.98;37.03
16613;BME280;8419;52.358;9.752;2022-11-20T04:55:09;100477.00;;;8.99;37.03
16613;BME280;8419;52.358;9.752;2022-11-20T04:57:54;100483.00;;;9.07;36.94
16613;BME280;8419;52.358;9.752;2022-11-20T05:00:40;100475.00;;;9.12;36.90
16613;BME280;8419;52.358;9.752;2022-11-20T05:03:26;100482.00;;;9.16;36.88
16613;BME280;8419;52.358;9.752;2022-11-20T05:06:13;100481.00;;;9.12;36.96
16613;BME280;8419;52.358;9.752;2022-11-20T05:08:59;100487.00;;;9.12;36.98
16613;BME280;8419;52.358;9.752;2022-11-20T05:11:51;100483.00;;;9.10;36.95
16613;BME280;8419;52.358;9.752;2022-11-20T05:14:37;100486.00;;;9.10;36.99
16613;BME280;8419;52.358;9.752;2022-11-20T05:17:22;100484.00;;;9.11;37.05
16613;BME280;8419;52.358;9.752;2022-11-20T05:20:11;100474.00;;;9.14;37.04
16613;BME280;8419;52.358;9.752;2022-11-20T05:22:57;100474.00;;;9.17;37.04
16613;BME280;8419;52.358;9.752;2022-11-20T05:25:43;100472.00;;;9.22;37.01
16613;BME280;8419;52.358;9.752;2022-11-20T05:28:29;100467.00;;;9.26;36.99
16613;BME280;8419;52.358;9.752;2022-11-20T05:31:17;100468.00;;;9.23;37.04
16613;BME280;8419;52.358;9.752;2022-11-20T05:34:03;100470.00;;;9.27;37.00
16613;BME280;8419;52.358;9.752;2022-11-20T05:36:49;100471.00;;;9.28;36.96
16613;BME280;8419;52.358;9.752;2022-11-20T05:39:35;100468.00;;;9.26;36.95
16613;BME280;8419;52.358;9.752;2022-11-20T05:42:20;100459.00;;;9.29;36.91
16613;BME280;8419;52.358;9.752;2022-11-20T05:45:18;100467.00;;;9.30;36.87
16613;BME280;8419;52.358;9.752;2022-11-20T05:48:04;100461.00;;;9.37;36.75
16613;BME280;8419;52.358;9.752;2022-11-20T05:50:49;100462.00;;;9.32;36.84
16613;BME280;8419;52.358;9.752;2022-11-20T05:53:36;100456.00;;;9.29;36.90
16613;BME280;8419;52.358;9.752;2022-11-20T05:56:22;100453.00;;;9.31;36.85
16613;BME280;8419;52.358;9.752;2022-11-20T05:59:08;100451.00;;;9.32;36.83
16613;BME280;8419;52.358;9.752;2022-11-20T06:01:53;100448.00;;;9.30;36.87
16613;BME280;8419;52.358;9.752;2022-11-20T06:04:39;100440.00;;;9.30;36.82
16613;BME280;8419;52.358;9.752;2022-11-20T06:07:25;100445.00;;;9.31;36.79
16613;BME280;8419;52.358;9.752;2022-11-20T06:10:11;100440.00;;;9.31;36.77
16613;BME280;8419;52.358;9.752;2022-11-20T06:12:58;100451.00;;;9.32;36.81
16613;BME280;8419;52.358;9.752;2022-11-20T06:15:49;100443.00;;;9.46;36.55
16613;BME280;8419;52.358;9.752;2022-11-20T06:18:35;100443.00;;;9.49;36.53
16613;BME280;8419;52.358;9.752;2022-11-20T06:21:22;100436.00;;;9.48;36.55
16613;BME280;8419;52.358;9.752;2022-11-20T06:24:10;100440.00;;;9.37;36.73
16613;BME280;8419;52.358;9.752;2022-11-20T06:26:56;100437.00;;;9.40;36.73
16613;BME280;8419;52.358;9.752;2022-11-20T06:29:41;100444.00;;;9.46;36.69
16613;BME280;8419;52.358;9.752;2022-11-20T06:32:27;100444.00;;;9.50;36.62
16613;BME280;8419;52.358;9.752;2022-11-20T06:35:13;100445.00;;;9.47;36.68
16613;BME280;8419;52.358;9.752;2022-11-20T06:37:59;100445.00;;;9.45;36.74
16613;BME280;8419;52.358;9.752;2022-11-20T06:40:44;100443.00;;;9.49;36.68
16613;BME280;8419;52.358;9.752;2022-11-20T06:43:30;100440.00;;;9.55;36.62
16613;BME280;8419;52.358;9.752;2022-11-20T06:46:17;100432.00;;;9.55;36.63
16613;BME280;8419;52.358;9.752;2022-11-20T06:49:05;100432.00;;;9.55;36.64
16613;BME280;8419;52.358;9.752;2022-11-20T06:51:51;100430.00;;;9.55;36.59
16613;BME280;8419;52.358;9.752;2022-11-20T06:54:37;100435.00;;;9.57;36.51
16613;BME280;8419;52.358;9.752;2022-11-20T06:57:22;100439.00;;;9.57;36.52
16613;BME280;8419;52.358;9.752;2022-11-20T07:00:12;100443.00;;;9.54;36.54
16613;BME280;8419;52.358;9.752;2022-11-20T07:02:57;100436.00;;;9.48;36.61
16613;BME280;8419;52.358;9.752;2022-11-20T07:05:43;100436.00;;;9.48;36.62
16613;BME280;8419;52.358;9.752;2022-11-20T07:08:30;100433.00;;;9.51;36.57
16613;BME280;8419;52.358;9.752;2022-11-20T07:11:16;100427.00;;;9.52;36.54
16613;BME280;8419;52.358;9.752;2022-11-20T07:14:02;100433.00;;;9.52;36.47
16613;BME280;8419;52.358;9.752;2022-11-20T07:16:47;100418.00;;;9.47;36.54
16613;BME280;8419;52.358;9.752;2022-11-20T07:19:33;100416.00;;;9.46;36.51
16613;BME280;8419;52.358;9.752;2022-11-20T07:22:18;100417.00;;;9.48;36.51
16613;BME280;8419;52.358;9.752;2022-11-20T07:25:08;100419.00;;;9.47;36.49
16613;BME280;8419;52.358;9.752;2022-11-20T07:27:57;100423.00;;;9.45;36.48
16613;BME280;8419;52.358;9.752;2022-11-20T07:30:43;100422.00;;;9.39;36.58
16613;BME280;8419;52.358;9.752;2022-11-20T07:33:34;100423.00;;;9.50;36.43
16613;BME280;8419;52.358;9.752;2022-11-20T07:36:19;100426.00;;;9.56;36.37
16613;BME280;8419;52.358;9.752;2022-11-20T07:39:05;100419.00;;;9.46;36.51
16613;BME280;8419;52.358;9.752;2022-11-20T07:41:51;100415.00;;;9.56;36.37
16613;BME280;8419;52.358;9.752;2022-11-20T07:44:37;100420.00;;;9.54;36.35
16613;BME280;8419;52.358;9.752;2022-11-20T07:47:22;100427.00;;;9.55;36.35
16613;BME280;8419;52.358;9.752;2022-11-20T07:50:09;100427.00;;;9.53;36.40
16613;BME280;8419;52.358;9.752;2022-11-20T07:53:03;100439.00;;;9.56;36.45
16613;BME280;8419;52.358;9.752;2022-11-20T07:55:50;100435.00;;;9.60;36.60
16613;BME280;8419;52.358;9.752;2022-11-20T07:58:39;100434.00;;;9.70;36.53
16613;BME280;8419;52.358;9.752;2022-11-20T08:01:25;100444.00;;;9.76;36.53
16613;BME280;8419;52.358;9.752;2022-11-20T08:04:11;100430.00;;;9.77;36.50
16613;BME280;8419;52.358;9.752;2022-11-20T08:06:56;100426.00;;;9.79;36.52
16613;BME280;8419;52.358;9.752;2022-11-20T08:09:43;100421.00;;;9.79;36.51
16613;BME280;8419;52.358;9.752;2022-11-20T08:12:28;100435.00;;;9.85;36.51
16613;BME280;8419;52.358;9.752;2022-11-20T08:15:33;100439.00;;;9.87;36.47
16613;BME280;8419;52.358;9.752;2022-11-20T08:18:19;100434.00;;;9.91;36.41
16613;BME280;8419;52.358;9.752;2022-11-20T08:21:05;100434.00;;;9.94;36.36
16613;BME280;8419;52.358;9.752;2022-11-20T08:23:50;100437.00;;;9.98;36.28
16613;BME280;8419;52.358;9.752;2022-11-20T08:26:38;100437.00;;;10.05;36.20
16613;BME280;8419;52.358;9.752;2022-11-20T08:29:24;100441.00;;;10.07;36.12
16613;BME280;8419;52.358;9.752;2022-11-20T08:32:11;100435.00;;;10.08;36.09
16613;BME280;8419;52.358;9.752;2022-11-20T08:34:58;100440.00;;;10.10;36.09
16613;BME280;8419;52.358;9.752;2022-11-20T08:37:46;100446.00;;;10.19;36.01
16613;BME280;8419;52.358;9.752;2022-11-20T08:40:32;100442.00;;;10.24;35.99
16613;BME280;8419;52.358;9.752;2022-11-20T08:43:20;100432.00;;;10.32;35.86
16613;BME280;8419;52.358;9.752;2022-11-20T08:46:09;100429.00;;;10.27;35.94
16613;BME280;8419;52.358;9.752;2022-11-20T08:48:56;100429.00;;;10.39;35.83
16613;BME280;8419;52.358;9.752;2022-11-20T08:51:42;100420.00;;;10.42;35.86
16613;BME280;8419;52.358;9.752;2022-11-20T08:54:28;100425.00;;;10.52;35.78
16613;BME280;8419;52.358;9.752;2022-11-20T08:57:13;100429.00;;;10.59;35.72
16613;BME280;8419;52.358;9.752;2022-11-20T09:00:00;100431.00;;;10.66;35.68
16613;BME280;8419;52.358;9.752;2022-11-20T09:02:45;100436.00;;;10.73;35.65
16613;BME280;8419;52.358;9.752;2022-11-20T09:05:34;100438.00;;;10.79;35.58
16613;BME280;8419;52.358;9.752;2022-11-20T09:08:19;100432.00;;;10.85;35.57
16613;BME280;8419;52.358;9.752;2022-11-20T09:11:07;100440.00;;;10.94;35.49
16613;BME280;8419;52.358;9.752;2022-11-20T09:13:52;100432.00;;;11.07;35.41
16613;BME280;8419;52.358;9.752;2022-11-20T09:16:38;100436.00;;;11.15;35.36
16613;BME280;8419;52.358;9.752;2022-11-20T09:19:25;100444.00;;;11.20;35.33
16613;BME280;8419;52.358;9.752;2022-11-20T09:22:10;100437.00;;;11.36;35.13
16613;BME280;8419;52.358;9.752;2022-11-20T09:24:56;100419.00;;;11.45;35.06
16613;BME280;8419;52.358;9.752;2022-11-20T09:27:43;100401.00;;;11.39;35.10
16613;BME280;8419;52.358;9.752;2022-11-20T09:30:29;100403.00;;;11.32;35.12
16613;BME280;8419;52.358;9.752;2022-11-20T09:33:15;100412.00;;;11.28;35.20
16613;BME280;8419;52.358;9.752;2022-11-20T09:36:01;100409.00;;;11.25;35.25
16613;BME280;8419;52.358;9.752;2022-11-20T09:38:48;100415.00;;;11.36;35.23
16613;BME280;8419;52.358;9.752;2022-11-20T09:41:55;100430.00;;;11.48;35.10
16613;BME280;8419;52.358;9.752;2022-11-20T09:44:56;100435.00;;;11.60;34.97
16613;BME280;8419;52.358;9.752;2022-11-20T09:47:55;100433.00;;;11.61;34.94
16613;BME280;8419;52.358;9.752;2022-11-20T09:50:49;100430.00;;;11.64;34.99
16613;BME280;8419;52.358;9.752;2022-11-20T09:53:50;100426.00;;;11.87;34.80
16613;BME280;8419;52.358;9.752;2022-11-20T09:56:39;100427.00;;;12.05;34.69
16613;BME280;8419;52.358;9.752;2022-11-20T09:59:35;100423.00;;;12.26;34.44
16613;BME280;8419;52.358;9.752;2022-11-20T10:02:27;100420.00;;;12.37;34.34
16613;BME280;8419;52.358;9.752;2022-11-20T10:05:19;100422.00;;;12.41;34.30
16613;BME280;8419;52.358;9.752;2022-11-20T10:08:13;100422.00;;;12.44;34.24
16613;BME280;8419;52.358;9.752;2022-11-20T10:11:07;100428.00;;;12.57;34.10
16613;BME280;8419;52.358;9.752;2022-11-20T10:14:08;100415.00;;;12.57;34.04
16613;BME280;8419;52.358;9.752;2022-11-20T10:17:05;100421.00;;;12.64;33.93
16613;BME280;8419;52.358;9.752;2022-11-20T10:20:08;100413.00;;;12.63;34.02
16613;BME280;8419;52.358;9.752;2022-11-20T10:23:11;100422.00;;;12.79;33.91
16613;BME280;8419;52.358;9.752;2022-11-20T10:26:11;100411.00;;;12.88;33.74
16613;BME280;8419;52.358;9.752;2022-11-20T10:29:09;100413.00;;;12.83;33.61
16613;BME280;8419;52.358;9.752;2022-11-20T10:32:00;100413.00;;;12.81;33.67
16613;BME280;8419;52.358;9.752;2022-11-20T10:34:52;100409.00;;;12.93;33.47
16613;BME280;8419;52.358;9.752;2022-11-20T10:37:42;100398.00;;;12.93;33.40
16613;BME280;8419;52.358;9.752;2022-11-20T10:40:34;100399.00;;;12.92;33.32
16613;BME280;8419;52.358;9.752;2022-11-20T10:43:23;100395.00;;;12.91;33.35
16613;BME280;8419;52.358;9.752;2022-11-20T10:46:15;100395.00;;;13.04;33.31
16613;BME280;8419;52.358;9.752;2022-11-20T10:49:09;100387.00;;;13.16;33.26
16613;BME280;8419;52.358;9.752;2022-11-20T10:52:04;100388.00;;;13.12;33.07
16613;BME280;8419;52.358;9.752;2022-11-20T10:55:01;100384.00;;;13.13;33.13
16613;BME280;8419;52.358;9.752;2022-11-20T10:57:57;100385.00;;;13.17;33.18
16613;BME280;8419;52.358;9.752;2022-11-20T11:00:46;100386.00;;;13.30;33.06
16613;BME280;8419;52.358;9.752;2022-11-20T11:03:33;100381.00;;;13.38;32.86
16613;BME280;8419;52.358;9.752;2022-11-20T11:06:23;100375.00;;;13.39;32.88
16613;BME280;8419;52.358;9.752;2022-11-20T11:09:15;100379.00;;;13.38;32.81
16613;BME280;8419;52.358;9.752;2022-11-20T11:12:01;100374.00;;;13.40;32.84
16613;BME280;8419;52.358;9.752;2022-11-20T11:14:52;100368.00;;;13.51;32.78
16613;BME280;8419;52.358;9.752;2022-11-20T11:17:46;100370.00;;;13.57;32.71
16613;BME280;8419;52.358;9.752;2022-11-20T11:20:32;100359.00;;;13.56;32.60
16613;BME280;8419;52.358;9.752;2022-11-20T11:23:30;100362.00;;;13.50;32.63
16613;BME280;8419;52.358;9.752;2022-11-20T11:26:21;100358.00;;;13.40;32.58
16613;BME280;8419;52.358;9.752;2022-11-20T11:29:18;100353.00;;;13.26;32.75
16613;BME280;8419;52.358;9.752;2022-11-20T11:32:05;100349.00;;;13.20;32.70
16613;BME280;8419;52.358;9.752;2022-11-20T11:35:02;100353.00;;;13.17;32.67
16613;BME280;8419;52.358;9.752;2022-11-20T11:37:49;100347.00;;;13.10;32.65
16613;BME280;8419;52.358;9.752;2022-11-20T11:40:36;100351.00;;;13.08;32.59
16613;BME280;8419;52.358;9.752;2022-11-20T11:43:25;100355.00;;;13.09;32.51
16613;BME280;8419;52.358;9.752;2022-11-20T11:46:33;100350.00;;;13.10;32.46
16613;BME280;8419;52.358;9.752;2022-11-20T11:49:20;100354.00;;;13.12;32.33
16613;BME280;8419;52.358;9.752;2022-11-20T11:52:13;100353.00;;;13.18;32.31
16613;BME280;8419;52.358;9.752;2022-11-20T11:55:04;100348.00;;;13.23;32.27
16613;BME280;8419;52.358;9.752;2022-11-20T11:57:54;100355.00;;;13.27;32.22
16613;BME280;8419;52.358;9.752;2022-11-20T12:00:51;100356.00;;;13.34;32.24
16613;BME280;8419;52.358;9.752;2022-11-20T12:03:40;100340.00;;;13.36;32.12
16613;BME280;8419;52.358;9.752;2022-11-20T12:06:29;100338.00;;;13.36;31.98
16613;BME280;8419;52.358;9.752;2022-11-20T12:09:19;100334.00;;;13.38;31.99
16613;BME280;8419;52.358;9.752;2022-11-20T12:12:10;100340.00;;;13.49;31.91
16613;BME280;8419;52.358;9.752;2022-11-20T12:14:59;100337.00;;;13.45;31.71
16613;BME280;8419;52.358;9.752;2022-11-20T12:17:44;100333.00;;;13.39;31.72
16613;BME280;8419;52.358;9.752;2022-11-20T12:20:35;100327.00;;;13.46;31.78
16613;BME280;8419;52.358;9.752;2022-11-20T12:23:30;100335.00;;;13.50;31.79
16613;BME280;8419;52.358;9.752;2022-11-20T12:26:40;100338.00;;;13.49;31.64
16613;BME280;8419;52.358;9.752;2022-11-20T12:29:39;100329.00;;;13.53;31.64
16613;BME280;8419;52.358;9.752;2022-11-20T12:35:55;100324.00;;;13.44;31.67
16613;BME280;8419;52.358;9.752;2022-11-20T12:39:00;100316.00;;;13.52;31.65
16613;BME280;8419;52.358;9.752;2022-11-20T12:42:07;100315.00;;;13.62;31.59
16613;BME280;8419;52.358;9.752;2022-11-20T12:45:28;100314.00;;;13.72;31.46
16613;BME280;8419;52.358;9.752;2022-11-20T12:48:33;100309.00;;;13.86;31.27
16613;BME280;8419;52.358;9.752;2022-11-20T12:51:39;100315.00;;;13.89;31.19
16613;BME280;8419;52.358;9.752;2022-11-20T12:58:04;100309.00;;;13.66;30.93
16613;BME280;8419;52.358;9.752;2022-11-20T13:00:58;100307.00;;;13.46;30.97
16613;BME280;8419;52.358;9.752;2022-11-20T13:03:50;100303.00;;;13.44;30.92
16613;BME280;8419;52.358;9.752;2022-11-20T13:06:39;100303.00;;;13.34;30.95
16613;BME280;8419;52.358;9.752;2022-11-20T13:09:27;100313.00;;;13.25;31.04
16613;BME280;8419;52.358;9.752;2022-11-20T13:12:17;100306.00;;;13.18;31.07
16613;BME280;8419;52.358;9.752;2022-11-20T13:15:14;100311.00;;;13.31;31.19
16613;BME280;8419;52.358;9.752;2022-11-20T13:18:08;100306.00;;;13.69;30.68
16613;BME280;8419;52.358;9.752;2022-11-20T13:20:54;100311.00;;;13.61;30.49
16613;BME280;8419;52.358;9.752;2022-11-20T13:23:40;100304.00;;;13.54;30.59
16613;BME280;8419;52.358;9.752;2022-11-20T13:26:26;100311.00;;;13.43;30.77
16613;BME280;8419;52.358;9.752;2022-11-20T13:29:17;100308.00;;;13.29;30.74
16613;BME280;8419;52.358;9.752;2022-11-20T13:32:05;100306.00;;;13.09;30.88
16613;BME280;8419;52.358;9.752;2022-11-20T13:34:53;100305.00;;;13.00;30.97
16613;BME280;8419;52.358;9.752;2022-11-20T13:37:40;100304.00;;;12.89;31.17
16613;BME280;8419;52.358;9.752;2022-11-20T13:40:26;100291.00;;;12.80;31.09
16613;BME280;8419;52.358;9.752;2022-11-20T13:43:19;100297.00;;;12.83;31.02
16613;BME280;8419;52.358;9.752;2022-11-20T13:46:09;100289.00;;;12.75;31.17
16613;BME280;8419;52.358;9.752;2022-11-20T13:48:55;100294.00;;;12.85;31.01
16613;BME280;8419;52.358;9.752;2022-11-20T13:51:43;100281.00;;;12.74;31.19
16613;BME280;8419;52.358;9.752;2022-11-20T13:54:51;100291.00;;;12.75;31.24
16613;BME280;8419;52.358;9.752;2022-11-20T13:57:59;100295.00;;;12.85;31.20
16613;BME280;8419;52.358;9.752;2022-11-20T14:00:51;100290.00;;;12.93;31.21
16613;BME280;8419;52.358;9.752;2022-11-20T14:03:43;100289.00;;;12.99;31.17
16613;BME280;8419;52.358;9.752;2022-11-20T14:06:30;100289.00;;;13.02;31.17
16613;BME280;8419;52.358;9.752;2022-11-20T14:09:27;100284.00;;;12.97;31.22
16613;BME280;8419;52.358;9.752;2022-11-20T14:12:17;100285.00;;;12.92;31.26
16613;BME280;8419;52.358;9.752;2022-11-20T14:15:05;100288.00;;;12.84;31.36
16613;BME280;8419;52.358;9.752;2022-11-20T14:17:53;100285.00;;;12.83;31.41
16613;BME280;8419;52.358;9.752;2022-11-20T14:20:39;100280.00;;;12.75;31.42
16613;BME280;8419;52.358;9.752;2022-11-20T14:23:27;100270.00;;;12.70;31.51
16613;BME280;8419;52.358;9.752;2022-11-20T14:26:14;100273.00;;;12.67;31.59
16613;BME280;8419;52.358;9.752;2022-11-20T14:29:04;100267.00;;;12.59;31.67
16613;BME280;8419;52.358;9.752;2022-11-20T14:31:53;100272.00;;;12.60;31.70
16613;BME280;8419;52.358;9.752;2022-11-20T14:34:41;100264.00;;;12.57;31.78
16613;BME280;8419;52.358;9.752;2022-11-20T14:37:33;100255.00;;;12.60;31.81
16613;BME280;8419;52.358;9.752;2022-11-20T14:40:26;100257.00;;;12.69;31.75
16613;BME280;8419;52.358;9.752;2022-11-20T14:43:23;100258.00;;;12.73;31.71
16613;BME280;8419;52.358;9.752;2022-11-20T14:46:10;100252.00;;;12.75;31.68
16613;BME280;8419;52.358;9.752;2022-11-20T14:48:57;100245.00;;;12.73;31.69
16613;BME280;8419;52.358;9.752;2022-11-20T14:51:45;100249.00;;;12.55;31.92
16613;BME280;8419;52.358;9.752;2022-11-20T14:54:31;100242.00;;;12.50;32.03
16613;BME280;8419;52.358;9.752;2022-11-20T14:57:24;100242.00;;;12.48;32.06
16613;BME280;8419;52.358;9.752;2022-11-20T15:00:21;100241.00;;;12.42;32.21
16613;BME280;8419;52.358;9.752;2022-11-20T15:03:15;100234.00;;;12.38;32.23
16613;BME280;8419;52.358;9.752;2022-11-20T15:06:04;100239.00;;;12.44;32.11
16613;BME280;8419;52.358;9.752;2022-11-20T15:08:51;100236.00;;;12.46;32.11
16613;BME280;8419;52.358;9.752;2022-11-20T15:11:38;100241.00;;;12.48;32.13